Nearby METAR Reports

 

KBFI - Seattle/Boeing, Washington, USA
Distance from station: S 10mi, 16km
Updated: Mon, 01-Mar-2021 3:53pm PST
Few Clouds
Few Clouds
 Wind from S
Wind: S 6 mph , 9 km/h
Temperature: 57°F , 14°C
Dew Point: 36°F , 2°C
Humidity: 44%
Barometer: 30.05 inHg , 1017.6 hPa
Clouds: Few Clouds
Visibility: 10 miles , 16 km
Cloud details: Few Clouds 5000 ft
Few Clouds 14000 ft
2021/03/01 23:53 KBFI 012353Z 17005KT 10SM FEW050 FEW140 14/02 A3005 RMK AO2 SLP174 T01390017 10144 20078 56008
KRNT - Renton, Washington, USA
Distance from station: SSE 14mi, 23km
Updated: Mon, 01-Mar-2021 3:53pm PST
Clear
Clear
 Wind from S
Wind: S 7 mph , 11 km/h
Temperature: 57°F , 14°C
Dew Point: 36°F , 2°C
Humidity: 44%
Barometer: 30.05 inHg , 1017.6 hPa
Clouds: Clear
Visibility: 10 miles , 16 km
2021/03/01 23:53 KRNT 012353Z AUTO 19006KT 10SM CLR 14/02 A3005 RMK AO2 SLP179 T01440017 10150 20072 56008
 
KPAE - Everett, Washington, USA
Distance from station: N 15mi, 25km
Updated: Mon, 01-Mar-2021 3:53pm PST
Clear
Clear
 Wind from WSW
Wind: WSW 7 mph , 11 km/h
Temperature: 52°F , 11°C
Dew Point: 37°F , 3°C
Humidity: 58%
Barometer: 30.05 inHg , 1017.6 hPa
Clouds: Clear
Visibility: 10 miles , 16 km
2021/03/01 23:53 KPAE 012353Z 24006KT 10SM CLR 11/03 A3005 RMK AO2 SLP177 T01110033 10128 20078 55006
KSEA - Seattle/Metro, Washington, USA
Distance from station: S 17mi, 27km
Updated: Mon, 01-Mar-2021 3:53pm PST
Mostly cloudy
Mostly cloudy
 Wind from SSW
Wind: SSW 12 mph , 19 km/h
Temperature: 55°F , 13°C
Dew Point: 36°F , 2°C
Humidity: 47%
Barometer: 30.05 inHg , 1017.6 hPa
Clouds: Mostly cloudy
Visibility: 10 miles , 16 km
Cloud details: Few Clouds 5000 ft
Partly cloudy 14000 ft
Mostly cloudy 25000 ft
2021/03/01 23:53 KSEA 012353Z 21010KT 10SM FEW050 SCT140 BKN250 13/02 A3005 RMK AO2 SLP183 T01330022 10139 20083 56007
 
KPWT - Bremerton Ntnl, Washington, USA
Distance from station: SW 24mi, 39km
Updated: Mon, 01-Mar-2021 3:56pm PST
Few Clouds
Few Clouds
 Wind from SSW
Wind: SSW 10 mph , 17 km/h
Temperature: 55°F , 13°C
Dew Point: 43°F , 6°C
Humidity: 63%
Barometer: 30.04 inHg , 1017.3 hPa
Clouds: Few Clouds
Visibility: 10 miles , 16 km
Cloud details: Few Clouds 10000 ft
2021/03/01 23:56 KPWT 012356Z AUTO 21009KT 10SM FEW100 13/06 A3004 RMK AO2 SLP178 T01330056 10144 20072 56009
KTIW - Tacoma, Washington, USA
Distance from station: SSW 32mi, 52km
Updated: Mon, 01-Mar-2021 3:53pm PST
Partly cloudy
Partly cloudy
 Wind from S
Wind: S 7 mph , 11 km/h
Temperature: 54°F , 12°C
Dew Point: 37°F , 3°C
Humidity: 54%
Barometer: 30.07 inHg , 1018.3 hPa
Clouds: Partly cloudy
Visibility: 10 miles , 16 km
Cloud details: Partly cloudy 4500 ft
Partly cloudy 8000 ft
2021/03/01 23:53 KTIW 012353Z 19006KT 10SM SCT045 SCT080 12/03 A3007 RMK AO2 SLP183 T01220033 10122 20056 56005
 
KAWO - Arlington Muni, Washington, USA
Distance from station: N 33mi, 54km
Updated: Mon, 01-Mar-2021 3:56pm PST
Partly cloudy
Partly cloudy
 Wind from NW
Wind: NW 7 mph , 11 km/h
Temperature: 54°F , 12°C
Dew Point: 43°F , 6°C
Humidity: 67%
Barometer: 30.05 inHg , 1017.6 hPa
Clouds: Partly cloudy
Visibility: 10 miles , 16 km
Cloud details: Partly cloudy 11000 ft
2021/03/01 23:56 KAWO 012356Z AUTO 31006KT 10SM SCT110 12/06 A3005 RMK AO2 SLP182 T01170056 10139 20078 55003
KTCM - Tacoma/Mc Chord, Washington, USA
Distance from station: S 41mi, 65km
Updated: Mon, 01-Mar-2021 3:58pm PST
Clear
Clear
 Wind from W
Wind: W 5 mph , 7 km/h
Temperature: 59°F , 15°C
Dew Point: 37°F , 3°C
Humidity: 45%
Barometer: 30.06 inHg , 1017.9 hPa
Clouds: Clear
Visibility: 10 miles , 16 km
2021/03/01 23:58 KTCM 012358Z AUTO 27004KT 10SM CLR 15/03 A3006 RMK AO2 SLP184 T01460025 10147 20067 55005 $
 
KPLU - Puyallup/Thun, Washington, USA
Distance from station: S 41mi, 66km
Updated: Mon, 01-Mar-2021 4:35pm PST
Clear
Clear
 Wind from varies
Wind: varies 5 mph , 7 km/h
Temperature: 57°F , 14°C
Dew Point: 34°F , 1°C
Humidity: 41%
Barometer: 30.05 inHg , 1017.6 hPa
Clouds: Clear
Visibility: 10 miles , 16 km
2021/03/02 00:35 KPLU 020035Z AUTO VRB04KT 10SM CLR 14/01 A3005 RMK AO2
KGRF - Fort Lewis/Gray, Washington, USA
Distance from station: SSW 45mi, 72km
Updated: Mon, 01-Mar-2021 3:58pm PST
Clear
Clear
 Wind from SW
Wind: SW 8 mph , 13 km/h
Temperature: 59°F , 15°C
Dew Point: 46°F , 8°C
Humidity: 63%
Barometer: 30.05 inHg , 1017.6 hPa
Clouds: Clear
Visibility: 10 miles , 16 km
2021/03/01 23:58 KGRF 012358Z AUTO 22007KT 10SM CLR 15/08 A3005 RMK AO2 SLP181 T01490077 10149 20065 55006 $
 
KNUW - Whidbey Is. Nas, Washington, USA
Distance from station: NNW 48mi, 77km
Updated: Mon, 01-Mar-2021 3:56pm PST
Mostly cloudy
Mostly cloudy
 Wind from calm
Wind: Calm
Temperature: 48°F , 9°C
Dew Point: 43°F , 6°C
Humidity: 82%
Barometer: 30.10 inHg , 1019.3 hPa
Clouds: Mostly cloudy
Visibility: 10 miles , 16 km
Cloud details: Few Clouds 6000 ft
Partly cloudy 12000 ft
Mostly cloudy 20000 ft
2021/03/01 23:56 KNUW 012356Z 00000KT 10SM FEW060 SCT120 BKN200 09/06 A3010 RMK AO2 SLP192 T00890061 10117 20089 53001 VISNO $
KSHN - Shelton, Washington, USA
Distance from station: SW 50mi, 80km
Updated: Mon, 01-Mar-2021 3:53pm PST
Mostly cloudy
Mostly cloudy
 Wind from WSW
Wind: WSW 14 mph , 22 km/h
Temperature: 55°F , 13°C
Dew Point: 43°F , 6°C
Humidity: 63%
Barometer: 30.04 inHg , 1017.3 hPa
Clouds: Mostly cloudy
Visibility: 10 miles , 16 km
Cloud details: Mostly cloudy 9000 ft
2021/03/01 23:53 KSHN 012353Z AUTO 25012KT 10SM BKN090 13/06 A3004 RMK AO2 SLP174 T01330056 10150 20067 55002